Time;durP1;ratioP1;P1;durP2;ratioP2;P2;SDS_P1;SDS_P2;PMS_P1;PMS_P2;Temp;Humidity;BMP_temperature;BMP_pressure;BME280_temperature;BME280_humidity;BME280_pressure;Samples;Min_cycle;Max_cycle;Signal;HPM_P1;HPM_P2
2022/12/04 00:01:19;;;;;;;34.88;20.10;;;1.80;84.40;;;;;;5032636;28;20041;-46
2022/12/04 00:03:50;;;;;;;37.38;20.15;;;1.80;84.50;;;;;;5046714;28;20339;-45
2022/12/04 00:06:18;;;;;;;36.33;21.92;;;1.90;84.30;;;;;;5052472;28;20482;-50
2022/12/04 00:08:46;;;;;;;37.47;20.33;;;1.80;84.20;;;;;;5031987;28;20036;-47
2022/12/04 00:11:15;;;;;;;37.95;21.05;;;1.80;84.20;;;;;;5015400;28;20033;-49
2022/12/04 00:13:42;;;;;;;30.83;18.00;;;1.70;84.10;;;;;;5036779;28;20041;-45
2022/12/04 00:16:12;;;;;;;31.45;18.85;;;1.70;84.20;;;;;;5046111;28;20029;-47
2022/12/04 00:18:41;;;;;;;;;;;1.70;83.90;;;;;;5033114;28;20115;-51
2022/12/04 00:21:10;;;;;;;31.88;17.85;;;1.60;84.20;;;;;;5031970;28;19909;-47
2022/12/04 00:23:38;;;;;;;34.17;17.27;;;1.70;83.80;;;;;;5040344;28;20048;-47
2022/12/04 00:26:07;;;;;;;33.90;19.83;;;1.60;83.30;;;;;;5013553;28;20029;-52
2022/12/04 00:28:35;;;;;;;28.17;16.33;;;1.60;83.40;;;;;;5032046;28;20022;-49
2022/12/04 00:31:09;;;;;;;27.27;15.95;;;1.50;82.70;;;;;;5035544;28;20037;-47
2022/12/04 00:33:39;;;;;;;26.48;16.40;;;1.40;82.20;;;;;;5044843;28;20043;-45
2022/12/04 00:36:10;;;;;;;26.20;15.70;;;1.40;82.60;;;;;;5055303;28;20118;-46
2022/12/04 00:38:38;;;;;;;27.33;15.10;;;1.50;82.40;;;;;;5047437;28;20048;-46
2022/12/04 00:41:18;;;;;;;31.42;18.17;;;1.40;81.90;;;;;;5049492;28;20052;-46
2022/12/04 00:43:47;;;;;;;28.70;16.75;;;1.40;82.20;;;;;;5042690;28;20022;-49
2022/12/04 00:46:15;;;;;;;31.02;18.50;;;1.40;82.50;;;;;;5043682;28;20116;-45
2022/12/04 00:48:42;;;;;;;26.65;15.75;;;1.40;82.30;;;;;;5036333;28;20348;-47
2022/12/04 00:51:11;;;;;;;30.70;17.80;;;1.40;82.40;;;;;;5049317;28;20044;-49
2022/12/04 00:53:39;;;;;;;30.45;16.80;;;1.30;82.40;;;;;;5047319;28;20028;-47
2022/12/04 00:56:11;;;;;;;31.27;19.52;;;1.30;82.10;;;;;;5055302;28;20041;-45
2022/12/04 00:58:38;;;;;;;32.97;18.55;;;1.40;82.30;;;;;;5055192;28;20029;-45
2022/12/04 01:01:11;;;;;;;35.22;18.98;;;1.30;81.80;;;;;;5044476;28;20037;-48
2022/12/04 01:03:39;;;;;;;31.35;18.83;;;1.20;82.00;;;;;;5050504;28;20039;-45
2022/12/04 01:06:15;;;;;;;32.00;19.42;;;1.20;82.10;;;;;;5055420;28;20029;-45
2022/12/04 01:08:42;;;;;;;36.75;21.60;;;1.20;81.80;;;;;;5041649;28;20096;-47
2022/12/04 01:11:09;;;;;;;34.45;20.38;;;1.20;82.10;;;;;;5055566;28;20029;-48
2022/12/04 01:13:35;;;;;;;31.80;18.20;;;1.20;82.70;;;;;;5051295;28;20417;-46
2022/12/04 01:16:02;;;;;;;33.33;20.00;;;1.30;82.70;;;;;;5053344;28;20123;-46
2022/12/04 01:18:28;;;;;;;34.40;19.48;;;1.30;82.50;;;;;;5055262;28;20039;-44
2022/12/04 01:20:55;;;;;;;35.28;21.52;;;1.20;82.20;;;;;;5037089;28;20021;-47
2022/12/04 01:23:24;;;;;;;40.45;21.52;;;1.20;82.10;;;;;;5052214;28;20349;-46
2022/12/04 01:25:53;;;;;;;35.90;20.95;;;1.10;82.30;;;;;;5053481;28;20032;-46
2022/12/04 01:28:23;;;;;;;38.13;23.50;;;1.10;82.30;;;;;;5053839;28;20033;-45
2022/12/04 01:31:20;;;;;;;41.75;24.38;;;1.10;82.40;;;;;;5050853;28;20044;-47
2022/12/04 01:33:47;;;;;;;39.10;21.75;;;1.10;82.70;;;;;;5048145;28;20037;-45
2022/12/04 01:36:18;;;;;;;42.35;24.55;;;1.00;82.50;;;;;;5039759;28;20431;-45
2022/12/04 01:38:45;;;;;;;40.00;23.58;;;1.10;82.90;;;;;;5053002;28;20033;-49
2022/12/04 01:41:17;;;;;;;41.20;23.30;;;1.00;82.80;;;;;;5053340;28;20029;-48
2022/12/04 01:43:45;;;;;;;46.63;28.33;;;1.10;83.10;;;;;;5054558;28;20454;-47
2022/12/04 01:46:11;;;;;;;43.67;24.10;;;1.10;83.10;;;;;;5036426;28;20040;-47
2022/12/04 01:49:06;;;;;;;41.63;25.27;;;1.10;83.40;;;;;;5054183;28;20025;-52
2022/12/04 01:51:41;;;;;;;40.88;24.15;;;1.00;83.60;;;;;;5015855;28;20049;-46
2022/12/04 01:54:17;;;;;;;46.25;26.40;;;1.00;83.80;;;;;;5035683;28;20544;-48
2022/12/04 01:56:54;;;;;;;40.70;25.13;;;1.00;83.90;;;;;;5026165;28;20045;-46
2022/12/04 01:59:26;;;;;;;45.10;27.17;;;1.10;84.30;;;;;;5042836;28;20098;-47
2022/12/04 02:02:00;;;;;;;40.50;23.70;;;1.00;84.40;;;;;;5041589;28;20048;-47
2022/12/04 02:04:29;;;;;;;47.13;26.60;;;1.00;84.50;;;;;;5051872;28;20025;-45
2022/12/04 02:06:56;;;;;;;39.55;23.30;;;1.00;84.10;;;;;;5053918;28;20039;-47
2022/12/04 02:09:22;;;;;;;42.78;25.55;;;0.90;83.80;;;;;;5045964;28;20411;-44
2022/12/04 02:12:31;;;;;;;41.35;25.58;;;0.90;84.00;;;;;;5054308;28;20033;-46
2022/12/04 02:15:27;;;;;;;40.33;25.05;;;0.90;83.30;;;;;;5042639;28;20032;-47
2022/12/04 02:18:17;;;;;;;37.92;23.45;;;0.90;83.80;;;;;;5048117;28;20166;-45
2022/12/04 02:21:00;;;;;;;;;;;0.90;83.70;;;;;;5051691;28;20055;-51
2022/12/04 02:23:48;;;;;;;33.97;21.40;;;0.90;83.60;;;;;;5040356;28;19909;-46
2022/12/04 02:26:25;;;;;;;35.78;22.33;;;0.90;83.30;;;;;;5036491;28;20354;-45
2022/12/04 02:29:12;;;;;;;42.38;24.35;;;0.90;83.00;;;;;;5051992;28;20040;-48
2022/12/04 02:31:57;;;;;;;37.30;21.15;;;0.90;83.00;;;;;;5050634;28;20127;-50
2022/12/04 02:35:00;;;;;;;39.72;24.75;;;0.80;83.00;;;;;;5054327;28;20479;-45
2022/12/04 02:37:53;;;;;;;38.58;23.23;;;0.80;82.90;;;;;;5033477;28;20033;-50
2022/12/04 02:40:49;;;;;;;40.13;23.02;;;0.90;83.30;;;;;;5037889;28;20087;-45
2022/12/04 02:43:22;;;;;;;42.55;22.48;;;0.80;83.20;;;;;;5044571;28;20068;-50
2022/12/04 02:46:07;;;;;;;42.65;24.58;;;0.90;83.40;;;;;;5032862;28;20025;-49
2022/12/04 02:48:35;;;;;;;37.70;22.48;;;0.90;83.40;;;;;;5049104;28;20055;-45
2022/12/04 02:51:04;;;;;;;38.92;22.92;;;0.90;83.70;;;;;;5031886;28;20033;-48
2022/12/04 02:53:37;;;;;;;40.43;24.03;;;0.90;83.90;;;;;;5032305;28;20579;-47
2022/12/04 02:56:11;;;;;;;40.33;23.27;;;0.90;83.90;;;;;;5043368;28;20049;-48
2022/12/04 02:59:03;;;;;;;44.60;24.90;;;0.90;84.20;;;;;;5034316;28;20078;-46
2022/12/04 03:01:37;;;;;;;37.92;20.60;;;0.90;84.50;;;;;;5035494;28;20068;-46
2022/12/04 03:04:14;;;;;;;37.60;24.10;;;0.90;84.40;;;;;;5052203;28;20020;-47
2022/12/04 03:06:45;;;;;;;36.83;21.08;;;0.90;84.30;;;;;;5052076;28;20048;-46
2022/12/04 03:09:22;;;;;;;44.30;25.30;;;0.80;84.30;;;;;;5051549;28;20017;-45
2022/12/04 03:12:24;;;;;;;43.15;25.27;;;0.90;84.20;;;;;;5046700;28;20025;-47
2022/12/04 03:15:08;;;;;;;45.65;24.02;;;0.80;84.00;;;;;;5000189;28;20033;-47
2022/12/04 03:17:46;;;;;;;40.95;24.10;;;0.70;84.20;;;;;;5015249;28;20449;-44
2022/12/04 03:20:15;;;;;;;41.33;25.77;;;0.80;84.60;;;;;;5032697;28;20112;-45
2022/12/04 03:22:49;;;;;;;48.78;26.73;;;0.80;84.60;;;;;;5052132;28;20442;-45
2022/12/04 03:25:16;;;;;;;43.35;23.38;;;0.80;84.50;;;;;;5050008;28;20082;-46
2022/12/04 03:27:56;;;;;;;47.63;26.73;;;0.80;84.40;;;;;;5034768;28;20017;-47
2022/12/04 03:30:23;;;;;;;42.78;26.52;;;0.90;84.50;;;;;;5048737;28;20477;-45
2022/12/04 03:33:19;;;;;;;43.63;25.52;;;0.90;84.60;;;;;;5052242;28;20035;-45
2022/12/04 03:35:55;;;;;;;42.85;26.23;;;0.90;84.20;;;;;;5033106;28;20118;-46
2022/12/04 03:38:51;;;;;;;45.38;27.17;;;0.90;84.60;;;;;;5043365;28;20037;-49
2022/12/04 03:41:26;;;;;;;48.10;25.55;;;0.90;84.50;;;;;;5036980;28;20063;-48
2022/12/04 03:44:40;;;;;;;50.95;28.42;;;0.80;84.70;;;;;;5052431;28;20552;-48
2022/12/04 03:47:17;;;;;;;46.65;28.85;;;0.80;84.80;;;;;;4991312;28;20034;-48
2022/12/04 03:49:49;;;;;;;52.17;29.60;;;0.70;84.70;;;;;;5045936;28;20478;-45
2022/12/04 03:52:35;;;;;;;43.67;26.48;;;0.70;84.80;;;;;;5034858;28;20021;-49
2022/12/04 03:55:24;;;;;;;44.83;28.23;;;0.70;84.90;;;;;;5052268;28;20032;-47
2022/12/04 03:57:55;;;;;;;47.50;27.95;;;0.80;85.20;;;;;;5039960;28;20868;-48
2022/12/04 04:00:24;;;;;;;40.67;27.10;;;0.70;85.30;;;;;;5032782;28;20088;-46
2022/12/04 04:03:10;;;;;;;47.42;28.30;;;0.80;85.40;;;;;;5032239;28;20049;-46
2022/12/04 04:05:40;;;;;;;51.08;32.00;;;0.90;85.60;;;;;;5036812;28;20036;-49
2022/12/04 04:08:26;;;;;;;47.53;29.13;;;0.90;85.50;;;;;;5054265;28;20443;-45
2022/12/04 04:10:58;;;;;;;45.95;27.90;;;0.90;85.20;;;;;;5038831;28;20499;-46
2022/12/04 04:25:03;;;;;;;46.70;27.75;;;0.80;85.80;;;;;;5039584;28;20091;-46
2022/12/04 04:27:30;;;;;;;40.58;25.15;;;0.80;85.60;;;;;;5043057;28;20041;-47
2022/12/04 04:29:57;;;;;;;40.38;24.77;;;0.90;85.70;;;;;;5037886;28;20040;-48
2022/12/04 04:33:00;;;;;;;36.88;23.45;;;0.90;85.80;;;;;;5048194;28;20033;-48
2022/12/04 04:36:12;;;;;;;44.13;26.67;;;0.90;85.80;;;;;;5036045;28;20030;-48
2022/12/04 04:38:49;;;;;;;42.47;26.08;;;0.90;86.00;;;;;;4968268;28;20483;-44
2022/12/04 04:41:38;;;;;;;40.53;25.65;;;1.00;86.00;;;;;;4955609;29;20043;-50
2022/12/04 04:44:40;;;;;;;42.35;26.05;;;1.00;86.10;;;;;;5034310;28;20046;-47
2022/12/04 04:47:15;;;;;;;39.03;25.15;;;1.00;86.10;;;;;;5019357;28;20025;-46
2022/12/04 04:49:45;;;;;;;42.72;22.85;;;1.10;86.20;;;;;;5041327;28;20492;-45
2022/12/04 04:52:12;;;;;;;42.20;27.13;;;1.00;86.10;;;;;;5037240;28;20136;-47
2022/12/04 04:54:39;;;;;;;38.13;24.33;;;1.00;86.00;;;;;;5054017;28;20351;-49
2022/12/04 04:57:06;;;;;;;40.85;24.58;;;1.00;86.00;;;;;;5053668;28;20071;-49
2022/12/04 04:59:36;;;;;;;41.03;25.45;;;1.10;86.30;;;;;;5051991;28;20029;-45
2022/12/04 05:02:03;;;;;;;44.85;28.20;;;1.00;86.00;;;;;;5055375;28;20108;-44
2022/12/04 05:04:30;;;;;;;42.75;27.13;;;1.00;86.10;;;;;;5051948;28;20695;-47
2022/12/04 05:06:56;;;;;;;39.45;23.85;;;1.00;86.00;;;;;;5035293;28;20021;-44
2022/12/04 05:09:23;;;;;;;43.40;28.00;;;1.10;86.20;;;;;;5035584;28;20021;-45
2022/12/04 05:11:50;;;;;;;45.70;26.75;;;1.00;86.40;;;;;;5017708;28;20116;-47
2022/12/04 05:14:17;;;;;;;40.85;27.10;;;1.00;86.30;;;;;;5052711;28;20061;-45
2022/12/04 05:16:43;;;;;;;45.83;25.48;;;1.00;86.50;;;;;;5039993;28;20095;-44
2022/12/04 05:21:56;;;;;;;43.97;26.92;;;1.00;86.60;;;;;;5035134;28;20033;-47
2022/12/04 05:24:21;;;;;;;43.65;27.80;;;1.10;86.80;;;;;;5038664;28;20045;-46
2022/12/04 05:26:48;;;;;;;47.00;26.98;;;1.10;87.00;;;;;;5035237;28;20022;-45
2022/12/04 05:29:15;;;;;;;38.05;23.52;;;1.10;87.00;;;;;;5049038;28;20021;-46
2022/12/04 05:31:42;;;;;;;39.55;24.40;;;1.10;87.00;;;;;;5036488;28;20052;-46
2022/12/04 05:34:07;;;;;;;41.53;24.45;;;1.10;87.00;;;;;;5053826;28;20029;-45
2022/12/04 05:36:33;;;;;;;42.53;25.98;;;1.10;86.90;;;;;;5054771;28;20021;-48
2022/12/04 05:39:02;;;;;;;41.28;24.70;;;1.20;86.80;;;;;;5053039;28;20108;-47
2022/12/04 05:41:29;;;;;;;42.55;22.90;;;1.20;86.80;;;;;;5037357;28;20044;-45
2022/12/04 05:43:56;;;;;;;42.65;25.45;;;1.20;86.80;;;;;;5047659;28;20458;-46
2022/12/04 05:46:22;;;;;;;37.58;24.30;;;1.20;86.80;;;;;;5046720;28;20025;-45
2022/12/04 05:48:49;;;;;;;39.63;24.40;;;1.20;86.70;;;;;;5017094;28;20100;-44
2022/12/04 05:51:16;;;;;;;42.85;23.45;;;1.20;86.80;;;;;;5034027;28;20030;-47
2022/12/04 05:53:43;;;;;;;40.47;25.77;;;1.20;87.10;;;;;;5046351;28;20047;-48
2022/12/04 05:56:13;;;;;;;37.45;24.35;;;1.20;87.10;;;;;;5036165;28;20049;-45
2022/12/04 05:58:39;;;;;;;41.05;25.65;;;1.20;87.10;;;;;;5038340;28;20041;-46
2022/12/04 06:01:11;;;;;;;41.60;26.05;;;1.20;87.20;;;;;;5042095;28;20033;-47
2022/12/04 06:03:37;;;;;;;39.08;25.10;;;1.20;87.10;;;;;;5054375;28;20461;-45
2022/12/04 06:06:14;;;;;;;45.35;25.90;;;1.20;87.20;;;;;;5020240;28;20065;-44
2022/12/04 06:08:45;;;;;;;41.55;26.35;;;1.20;87.40;;;;;;5034032;28;20041;-46
2022/12/04 06:11:14;;;;;;;40.80;23.73;;;1.20;87.30;;;;;;5035686;28;20029;-46
2022/12/04 06:13:42;;;;;;;40.73;24.03;;;1.30;87.30;;;;;;5052607;28;20057;-45
2022/12/04 06:16:17;;;;;;;39.53;23.05;;;1.20;87.20;;;;;;5047449;28;20621;-43
2022/12/04 06:18:49;;;;;;;44.65;25.88;;;1.30;87.40;;;;;;5034198;28;20113;-44
2022/12/04 06:21:17;;;;;;;41.67;22.83;;;1.30;87.10;;;;;;5033551;28;20087;-47
2022/12/04 06:23:44;;;;;;;42.10;24.77;;;1.30;87.30;;;;;;5034015;28;20501;-44
2022/12/04 06:26:11;;;;;;;42.42;25.65;;;1.30;87.30;;;;;;5050177;28;20075;-47
2022/12/04 06:28:38;;;;;;;43.80;25.45;;;1.30;87.30;;;;;;5038355;28;20094;-46
2022/12/04 06:31:08;;;;;;;39.00;23.35;;;1.30;87.20;;;;;;5053017;28;20051;-45
2022/12/04 06:33:35;;;;;;;42.50;24.88;;;1.40;87.40;;;;;;5033379;28;20032;-44
2022/12/04 06:36:04;;;;;;;44.35;24.85;;;1.40;87.30;;;;;;5052697;28;20087;-45
2022/12/04 06:38:31;;;;;;;41.45;24.20;;;1.30;87.40;;;;;;5041696;28;20048;-44
2022/12/04 06:41:02;;;;;;;35.88;23.13;;;1.30;87.50;;;;;;5050369;28;20120;-45
2022/12/04 06:43:29;;;;;;;39.75;25.05;;;1.40;87.70;;;;;;5051417;28;20087;-46
2022/12/04 06:46:17;;;;;;;39.72;25.33;;;1.40;87.70;;;;;;5041298;28;20025;-49
2022/12/04 06:48:44;;;;;;;36.90;23.83;;;1.40;87.60;;;;;;5050296;28;20039;-47
2022/12/04 06:51:21;;;;;;;37.00;22.92;;;1.40;87.50;;;;;;5053310;28;20079;-45
2022/12/04 06:53:49;;;;;;;41.95;25.40;;;1.40;87.40;;;;;;5049493;28;20025;-45
2022/12/04 06:56:18;;;;;;;34.80;22.08;;;1.40;87.40;;;;;;5052539;28;20052;-49
2022/12/04 06:58:47;;;;;;;41.28;23.90;;;1.50;87.30;;;;;;5051735;28;20094;-47
2022/12/04 07:01:15;;;;;;;39.03;23.53;;;1.50;87.10;;;;;;5044475;28;20037;-49
2022/12/04 07:03:43;;;;;;;39.75;23.42;;;1.50;87.20;;;;;;5049688;28;20021;-48
2022/12/04 07:06:22;;;;;;;39.30;25.38;;;1.50;87.30;;;;;;5051013;28;20017;-46
2022/12/04 07:08:51;;;;;;;35.22;23.23;;;1.50;87.20;;;;;;5050069;28;20024;-51
2022/12/04 07:11:20;;;;;;;36.20;22.25;;;1.50;87.30;;;;;;5051198;28;20053;-45
2022/12/04 07:13:47;;;;;;;38.17;23.97;;;1.50;87.30;;;;;;5051639;28;20029;-45
2022/12/04 07:16:19;;;;;;;35.22;22.83;;;1.50;87.40;;;;;;5036979;28;20022;-46
2022/12/04 07:18:49;;;;;;;36.22;21.60;;;1.50;87.40;;;;;;5033188;28;20662;-47
2022/12/04 07:21:18;;;;;;;35.67;23.48;;;1.50;87.50;;;;;;5038703;28;20039;-47
2022/12/04 07:23:46;;;;;;;38.80;23.83;;;1.50;87.30;;;;;;5052849;28;20060;-47
2022/12/04 07:26:13;;;;;;;35.03;21.63;;;1.50;87.30;;;;;;5051954;28;20017;-45
2022/12/04 07:28:40;;;;;;;32.55;21.40;;;1.60;87.30;;;;;;5049572;28;20067;-49
2022/12/04 07:31:11;;;;;;;36.47;20.67;;;1.60;87.40;;;;;;5037432;28;20017;-47
2022/12/04 07:33:37;;;;;;;36.58;22.65;;;1.60;87.30;;;;;;5052462;28;20111;-49
2022/12/04 07:36:06;;;;;;;39.83;23.33;;;1.70;87.30;;;;;;5051414;28;20082;-46
2022/12/04 07:38:33;;;;;;;36.97;22.02;;;1.60;87.20;;;;;;5049950;28;20463;-48
2022/12/04 07:41:02;;;;;;;32.50;21.20;;;1.70;87.10;;;;;;5050631;28;20355;-52
2022/12/04 07:43:29;;;;;;;37.53;22.08;;;1.70;87.10;;;;;;5039582;28;20029;-47
2022/12/04 07:45:57;;;;;;;33.53;20.77;;;1.80;87.00;;;;;;5041893;28;20056;-47
2022/12/04 07:48:24;;;;;;;41.50;22.63;;;1.80;86.90;;;;;;5034019;28;20116;-45
2022/12/04 07:51:05;;;;;;;38.85;22.98;;;1.80;87.10;;;;;;5050476;28;20419;-45
2022/12/04 07:53:37;;;;;;;32.67;21.10;;;1.90;87.10;;;;;;5048760;28;20025;-48
2022/12/04 07:56:05;;;;;;;34.38;22.35;;;1.90;86.90;;;;;;5051553;28;20041;-45
2022/12/04 07:58:33;;;;;;;34.53;21.73;;;1.90;87.00;;;;;;5032055;28;20466;-46
2022/12/04 08:01:11;;;;;;;40.92;22.92;;;1.90;87.10;;;;;;5042760;28;20588;-44
2022/12/04 08:03:39;;;;;;;36.47;22.40;;;2.00;87.20;;;;;;5051431;28;20021;-44
2022/12/04 08:06:09;;;;;;;35.92;21.85;;;2.00;87.00;;;;;;5045975;28;20025;-46
2022/12/04 08:08:36;;;;;;;35.10;22.58;;;2.00;86.80;;;;;;5051534;28;20055;-50
2022/12/04 08:11:07;;;;;;;36.65;21.70;;;2.00;87.00;;;;;;5050668;28;20041;-45
2022/12/04 08:13:34;;;;;;;34.58;21.77;;;2.00;87.00;;;;;;5039255;28;20024;-48
2022/12/04 08:16:06;;;;;;;39.53;22.45;;;2.10;87.10;;;;;;5048814;28;20445;-46
2022/12/04 08:18:33;;;;;;;38.28;23.63;;;2.10;87.30;;;;;;5050820;28;20676;-44
2022/12/04 08:21:22;;;;;;;37.72;21.02;;;2.10;87.30;;;;;;5047091;28;20033;-49
2022/12/04 08:23:51;;;;;;;35.97;21.27;;;2.10;87.30;;;;;;5050131;28;20017;-45
2022/12/04 08:26:23;;;;;;;41.50;21.67;;;2.10;87.30;;;;;;5050370;28;20112;-53
2022/12/04 08:28:55;;;;;;;35.58;21.10;;;2.20;87.30;;;;;;5051235;28;20268;-46
2022/12/04 08:31:24;;;;;;;34.72;23.55;;;2.20;87.00;;;;;;5047422;28;20056;-48
2022/12/04 08:33:54;;;;;;;32.53;20.38;;;2.20;86.90;;;;;;5050316;28;20028;-47
2022/12/04 08:36:21;;;;;;;41.78;24.33;;;2.20;86.90;;;;;;5051020;28;20029;-46
2022/12/04 08:38:47;;;;;;;34.70;21.75;;;2.20;86.90;;;;;;5051095;28;20594;-46
2022/12/04 08:41:20;;;;;;;37.25;21.23;;;2.20;86.90;;;;;;5048995;28;20071;-47
2022/12/04 08:43:46;;;;;;;42.67;23.33;;;2.30;86.80;;;;;;5049363;28;20431;-47
2022/12/04 08:46:15;;;;;;;33.47;21.17;;;2.30;86.50;;;;;;5048410;28;20099;-44
2022/12/04 08:48:42;;;;;;;37.75;22.70;;;2.40;86.40;;;;;;5049428;28;20028;-47
2022/12/04 08:51:15;;;;;;;39.10;23.23;;;2.40;86.50;;;;;;5050785;28;20063;-44
2022/12/04 08:53:45;;;;;;;33.40;19.60;;;2.40;86.20;;;;;;5052479;28;20331;-45
2022/12/04 08:56:15;;;;;;;34.33;20.42;;;2.40;86.10;;;;;;5061247;28;20135;-45
2022/12/04 08:58:40;;;;;;;42.40;22.58;;;2.40;86.10;;;;;;5068077;28;20068;-46
2022/12/04 09:01:10;;;;;;;32.70;19.98;;;2.50;86.10;;;;;;5044817;28;20083;-46
2022/12/04 09:03:38;;;;;;;37.15;21.35;;;2.50;86.00;;;;;;5055222;28;20021;-48
2022/12/04 09:06:06;;;;;;;35.10;21.60;;;2.50;86.00;;;;;;5033499;28;20029;-45
2022/12/04 09:08:32;;;;;;;31.35;19.95;;;2.60;86.10;;;;;;5036505;28;20033;-48
2022/12/04 09:11:08;;;;;;;31.90;19.90;;;2.50;85.70;;;;;;5043689;28;20029;-48
2022/12/04 09:13:34;;;;;;;32.28;19.35;;;2.60;85.60;;;;;;5043054;28;20025;-45
2022/12/04 09:16:06;;;;;;;32.67;19.02;;;2.60;85.50;;;;;;5037746;28;20053;-45
2022/12/04 09:18:33;;;;;;;34.95;19.15;;;2.60;85.30;;;;;;5053042;28;20123;-44
2022/12/04 09:21:03;;;;;;;31.02;18.17;;;2.70;85.30;;;;;;5074639;28;20043;-45
2022/12/04 09:23:30;;;;;;;30.77;18.45;;;2.70;84.90;;;;;;5055983;28;20462;-45
2022/12/04 09:25:57;;;;;;;29.73;18.73;;;2.70;84.80;;;;;;5058018;28;20044;-49
2022/12/04 09:28:23;;;;;;;35.42;18.80;;;2.80;84.80;;;;;;5062905;28;20334;-49
2022/12/04 09:31:03;;;;;;;27.50;19.35;;;2.70;84.80;;;;;;5041978;28;20033;-45
2022/12/04 09:33:31;;;;;;;36.70;19.17;;;2.80;85.10;;;;;;5051867;28;20024;-47
2022/12/04 09:36:00;;;;;;;31.42;19.77;;;2.80;85.20;;;;;;5054847;28;20017;-44
2022/12/04 09:38:27;;;;;;;34.10;19.52;;;2.90;85.10;;;;;;5064539;28;20620;-48
2022/12/04 09:41:18;;;;;;;30.40;20.98;;;2.90;85.00;;;;;;5037837;28;20079;-47
2022/12/04 09:43:56;;;;;;;27.33;17.27;;;2.80;84.90;;;;;;5048899;28;20091;-45
2022/12/04 09:46:34;;;;;;;31.00;19.38;;;2.90;84.80;;;;;;5045730;28;20029;-47
2022/12/04 09:49:08;;;;;;;28.15;19.60;;;2.80;84.80;;;;;;5054314;28;20028;-44
2022/12/04 09:51:38;;;;;;;34.72;20.38;;;2.80;85.20;;;;;;5061702;28;20082;-47
2022/12/04 09:54:31;;;;;;;35.50;21.60;;;2.80;84.80;;;;;;5036110;28;20029;-48
2022/12/04 09:57:11;;;;;;;30.85;19.13;;;2.80;85.20;;;;;;5050239;28;20465;-47
2022/12/04 09:59:38;;;;;;;33.28;20.23;;;2.80;85.20;;;;;;5036917;28;20452;-51
2022/12/04 10:02:36;;;;;;;32.97;19.48;;;2.90;85.20;;;;;;5035971;28;20120;-49
2022/12/04 10:05:13;;;;;;;31.02;19.23;;;2.90;85.00;;;;;;5008862;28;20041;-47
2022/12/04 10:08:12;;;;;;;33.25;21.08;;;2.90;85.10;;;;;;5049883;28;20029;-47
2022/12/04 10:10:55;;;;;;;30.02;19.45;;;2.90;85.30;;;;;;5058964;28;20066;-44
2022/12/04 10:13:49;;;;;;;32.03;20.08;;;2.90;85.10;;;;;;5043662;28;20105;-46
2022/12/04 10:16:33;;;;;;;32.25;19.92;;;3.00;85.50;;;;;;5043405;28;20018;-44
2022/12/04 10:19:30;;;;;;;36.40;21.45;;;3.00;85.30;;;;;;5039926;28;20116;-46
2022/12/04 10:22:07;;;;;;;31.77;19.40;;;3.00;85.20;;;;;;5051505;28;20025;-47
2022/12/04 10:24:53;;;;;;;32.88;18.63;;;3.00;85.20;;;;;;5051915;28;20145;-46
2022/12/04 10:27:31;;;;;;;33.22;20.73;;;3.00;85.30;;;;;;5038915;28;20060;-44
2022/12/04 10:30:21;;;;;;;32.35;19.67;;;3.00;85.20;;;;;;5033455;28;20518;-47
2022/12/04 10:32:56;;;;;;;30.15;20.15;;;3.00;85.30;;;;;;5044729;28;20032;-47
2022/12/04 10:35:42;;;;;;;36.45;20.95;;;3.00;85.50;;;;;;5067899;28;20107;-45
2022/12/04 10:38:38;;;;;;;33.75;20.42;;;3.00;85.40;;;;;;5049376;28;20031;-49
2022/12/04 10:41:20;;;;;;;35.20;20.67;;;3.10;85.20;;;;;;5039474;28;20041;-47
2022/12/04 10:43:49;;;;;;;32.25;19.08;;;3.10;85.20;;;;;;5033483;28;20095;-45
2022/12/04 10:46:22;;;;;;;33.97;21.30;;;3.10;85.10;;;;;;5052651;28;20025;-46
2022/12/04 10:48:55;;;;;;;33.38;18.40;;;3.10;85.20;;;;;;5052097;28;20468;-45
2022/12/04 10:51:23;;;;;;;31.90;19.50;;;3.20;85.00;;;;;;5063412;28;20102;-44
2022/12/04 10:53:50;;;;;;;35.28;19.95;;;3.10;84.80;;;;;;5069636;28;20109;-47
2022/12/04 10:56:24;;;;;;;28.77;18.98;;;3.10;84.60;;;;;;5041877;28;20053;-45
2022/12/04 10:59:04;;;;;;;37.72;21.63;;;3.10;84.80;;;;;;5055962;28;20481;-44
2022/12/04 11:01:35;;;;;;;33.22;21.58;;;3.10;85.10;;;;;;5035494;28;20446;-44
2022/12/04 11:04:24;;;;;;;31.17;19.50;;;3.10;85.10;;;;;;5061481;28;20446;-44
2022/12/04 11:07:04;;;;;;;30.27;19.48;;;3.10;85.30;;;;;;5047998;28;20104;-45
2022/12/04 11:09:32;;;;;;;37.05;22.20;;;3.10;85.10;;;;;;5044141;28;20029;-45
2022/12/04 11:12:17;;;;;;;40.38;25.77;;;3.20;85.30;;;;;;5048835;28;20029;-46
2022/12/04 11:14:43;;;;;;;30.80;20.25;;;3.20;85.50;;;;;;5034695;28;20111;-46
2022/12/04 11:17:17;;;;;;;30.58;20.95;;;3.20;85.50;;;;;;5032981;28;20026;-44
2022/12/04 11:19:44;;;;;;;34.10;20.60;;;3.20;85.60;;;;;;5032788;28;20084;-47
2022/12/04 11:22:29;;;;;;;30.98;21.05;;;3.20;85.80;;;;;;5031812;28;20463;-45
2022/12/04 11:24:57;;;;;;;34.38;20.17;;;3.20;85.80;;;;;;5032778;28;20021;-49
2022/12/04 11:27:31;;;;;;;33.88;21.23;;;3.30;85.70;;;;;;5046808;28;20035;-45
2022/12/04 11:30:02;;;;;;;34.17;21.85;;;3.30;85.60;;;;;;5050173;28;20470;-46
2022/12/04 11:32:32;;;;;;;30.83;20.10;;;3.30;85.90;;;;;;5049911;28;20028;-47
2022/12/04 11:35:11;;;;;;;32.25;20.80;;;3.40;85.80;;;;;;5051758;28;20413;-49
2022/12/04 11:37:39;;;;;;;30.77;21.47;;;3.40;85.60;;;;;;5045077;28;20492;-46
2022/12/04 11:40:16;;;;;;;32.25;20.60;;;3.40;85.70;;;;;;5037423;28;20039;-45
2022/12/04 11:42:43;;;;;;;31.35;19.50;;;3.40;85.40;;;;;;5051338;28;20036;-45
2022/12/04 11:45:21;;;;;;;33.90;21.15;;;3.40;85.10;;;;;;5032621;28;20033;-46
2022/12/04 11:48:14;;;;;;;32.08;19.75;;;3.40;85.40;;;;;;5049261;28;20032;-47
2022/12/04 11:51:04;;;;;;;31.80;23.05;;;3.50;85.40;;;;;;5032292;28;20044;-45
2022/12/04 11:54:06;;;;;;;34.03;21.38;;;3.60;85.60;;;;;;5045806;28;20034;-45
2022/12/04 11:56:39;;;;;;;32.78;21.23;;;3.70;85.40;;;;;;4989073;28;20045;-46
2022/12/04 11:59:26;;;;;;;33.33;21.27;;;3.70;85.60;;;;;;5052761;28;20445;-45
2022/12/04 12:02:30;;;;;;;31.73;19.83;;;3.70;85.40;;;;;;5042223;28;20083;-47
2022/12/04 12:05:22;;;;;;;30.75;19.20;;;3.80;85.20;;;;;;5032462;28;20061;-47
2022/12/04 12:08:18;;;;;;;29.60;19.33;;;3.70;85.30;;;;;;5032575;28;20427;-49
2022/12/04 12:11:18;;;;;;;34.00;20.40;;;3.80;85.60;;;;;;5030479;28;20167;-47
2022/12/04 12:14:08;;;;;;;27.52;19.00;;;3.80;85.70;;;;;;5049930;28;20037;-45
2022/12/04 12:16:52;;;;;;;30.00;19.77;;;3.90;85.40;;;;;;5050103;28;20123;-48
2022/12/04 12:19:55;;;;;;;30.55;20.02;;;3.90;85.30;;;;;;5051677;28;20057;-44
2022/12/04 12:22:49;;;;;;;26.48;17.30;;;3.90;85.40;;;;;;5024528;28;20044;-46
2022/12/04 12:25:44;;;;;;;33.13;21.27;;;3.90;85.30;;;;;;5043553;28;20036;-45
2022/12/04 12:28:41;;;;;;;29.40;17.45;;;3.80;85.00;;;;;;5054847;28;20025;-44
2022/12/04 12:31:29;;;;;;;28.58;18.67;;;3.90;85.30;;;;;;4991805;28;20044;-46
2022/12/04 12:34:06;;;;;;;30.15;17.85;;;3.90;85.00;;;;;;5055754;28;20530;-44
2022/12/04 12:36:39;;;;;;;32.00;19.65;;;3.90;85.20;;;;;;5055326;28;20028;-44
2022/12/04 12:39:56;;;;;;;30.85;19.50;;;3.90;85.10;;;;;;5054384;28;20119;-50
2022/12/04 12:42:49;;;;;;;31.55;19.95;;;3.90;84.70;;;;;;5033998;28;20124;-48
2022/12/04 12:45:35;;;;;;;28.58;18.98;;;3.80;84.40;;;;;;5028409;28;20025;-46
2022/12/04 12:48:36;;;;;;;29.27;18.90;;;3.90;84.50;;;;;;5038332;28;20021;-46
2022/12/04 12:51:27;;;;;;;33.90;18.85;;;3.90;84.80;;;;;;5016343;28;20135;-46
2022/12/04 12:53:57;;;;;;;32.70;20.73;;;3.90;84.80;;;;;;5044427;28;20033;-46
2022/12/04 12:56:39;;;;;;;31.85;20.67;;;3.90;84.90;;;;;;5046209;28;20049;-45
2022/12/04 12:59:12;;;;;;;35.53;22.58;;;3.80;85.10;;;;;;5043970;28;20033;-47
2022/12/04 13:02:01;;;;;;;33.63;20.33;;;3.90;85.30;;;;;;5036397;28;20509;-50
2022/12/04 13:04:52;;;;;;;36.78;21.67;;;3.80;85.30;;;;;;5046609;28;20447;-49
2022/12/04 13:07:37;;;;;;;29.98;20.50;;;3.80;85.60;;;;;;5039577;28;20398;-49
2022/12/04 13:10:14;;;;;;;33.38;22.80;;;3.80;85.70;;;;;;5041744;28;20022;-47
2022/12/04 13:12:50;;;;;;;31.75;20.58;;;3.80;85.20;;;;;;5054856;28;20154;-45
2022/12/04 13:15:22;;;;;;;30.88;19.85;;;3.80;84.90;;;;;;5053646;28;20339;-45
2022/12/04 13:17:53;;;;;;;31.83;21.23;;;3.80;84.80;;;;;;5045751;28;20043;-44
2022/12/04 13:20:29;;;;;;;32.90;20.25;;;3.90;84.80;;;;;;5036959;28;20113;-45
2022/12/04 13:23:06;;;;;;;32.78;21.73;;;3.90;84.80;;;;;;5054091;28;20107;-45
2022/12/04 13:26:00;;;;;;;33.78;21.55;;;3.90;85.00;;;;;;5052044;28;20100;-45
2022/12/04 13:28:43;;;;;;;42.42;25.33;;;3.90;84.80;;;;;;5053873;28;20020;-45
2022/12/04 13:31:33;;;;;;;34.53;21.13;;;3.80;84.80;;;;;;5054025;28;20075;-45
2022/12/04 13:34:36;;;;;;;38.35;23.23;;;3.80;84.80;;;;;;5054782;28;20043;-45